Capitol Logistics 224


KLAX
Los Angeles International Airport
Los Angeles, California, US
PANC
Ted Stevens Anchorage International Airport
Anchorage, Alaska, US

Route Details

Aircraft Information
Primary: Boeing 767-300BDSF
Backup: Not Available
Route Data
Distance: 2089nm
Sched. Duration: 4h 40m
Avg. Duration: 5h 10m (+70m)
Times Flown: 15
Recm'd Route: SUMMR1 SCTRR PYE J143 ENI FOT BOXER B453 MDO WITTI4
Planned Altitude: 34,000ft
Origin Wx: KLAX 030353Z 27009KT 10SM SCT150 BKN200 17/13 A2999 RMK AO2 SLP152 T01720133
Dest. Wx: PANC 030353Z 15014G26KT 10SM FEW045 BKN075 BKN150 14/04 A2970 RMK AO2 PK WND 16031/0322 SLP059 VIRGA ALQDS T01390039
Notes:

Financial History
Total Freight: 1,815,717lbs
Average Load: 121,048lbs/flt
Fuel Used: 890,122lbs
Avg. Fuel Used: 59,341lbs/flt
Fuel Expense: $1,058,655
Avg. Fuel Expense: $70,577
Avg. Fuel Cost: $1.19/lbs
Total Gross Income: $2,431,721
Pilot Pay: $2,875
Total Expenses: $258,697
Total Revenue: $1,096,329
Average Revenue: $162,114.73